Time;durP1;ratioP1;P1;durP2;ratioP2;P2;SDS_P1;SDS_P2;PMS_P1;PMS_P2;Temp;Humidity;BMP_temperature;BMP_pressure;BME280_temperature;BME280_humidity;BME280_pressure;Samples;Min_cycle;Max_cycle;Signal;HPM_P1;HPM_P2
2022/12/26 00:00:54;;;;;;;1.77;1.60;;;8.00;99.90;;;;;;5097361;28;20249;-76
2022/12/26 00:03:22;;;;;;;1.70;1.60;;;8.00;99.90;;;;;;5095717;28;20226;-77
2022/12/26 00:05:50;;;;;;;1.70;1.60;;;8.20;99.90;;;;;;5094991;28;20616;-77
2022/12/26 00:08:18;;;;;;;1.70;1.60;;;8.10;99.90;;;;;;5095208;28;20203;-76
2022/12/26 00:10:46;;;;;;;1.80;1.50;;;8.10;99.90;;;;;;5116170;28;20600;-76
2022/12/26 00:13:16;;;;;;;1.70;1.60;;;8.20;99.90;;;;;;5115298;28;20286;-76
2022/12/26 00:16:07;;;;;;;1.80;1.70;;;8.10;99.90;;;;;;5114980;28;20210;-77
2022/12/26 00:18:35;;;;;;;2.10;1.60;;;8.10;99.90;;;;;;5110020;28;20233;-75
2022/12/26 00:21:04;;;;;;;2.30;1.60;;;8.00;99.90;;;;;;5095215;28;20215;-77
2022/12/26 00:23:32;;;;;;;4.57;1.50;;;8.00;99.90;;;;;;5094393;28;20565;-76
2022/12/26 00:26:03;;;;;;;2.93;1.63;;;8.10;99.90;;;;;;5096150;28;20222;-76
2022/12/26 00:28:32;;;;;;;2.07;1.60;;;8.20;99.90;;;;;;5095244;28;20234;-77
2022/12/26 00:31:04;;;;;;;2.27;1.73;;;8.30;99.90;;;;;;5095989;28;20214;-80
2022/12/26 00:33:34;;;;;;;2.53;1.60;;;8.20;99.90;;;;;;5111060;28;20230;-78
2022/12/26 00:36:03;;;;;;;1.63;1.43;;;8.20;99.90;;;;;;5118509;28;20206;-77
2022/12/26 00:38:32;;;;;;;1.70;1.60;;;8.20;99.90;;;;;;5129802;28;20210;-77
2022/12/26 00:41:00;;;;;;;2.33;1.43;;;8.20;99.90;;;;;;5126448;28;20249;-80
2022/12/26 00:43:28;;;;;;;1.70;1.60;;;8.20;99.90;;;;;;5104364;28;20230;-78
2022/12/26 00:45:58;;;;;;;1.57;1.47;;;8.20;99.90;;;;;;5096777;28;20310;-78
2022/12/26 00:48:28;;;;;;;2.47;1.40;;;8.10;99.90;;;;;;5098111;28;20554;-76
2022/12/26 00:50:57;;;;;;;1.73;1.40;;;8.20;99.90;;;;;;5096041;28;20346;-76
2022/12/26 00:53:26;;;;;;;1.50;1.40;;;8.20;99.90;;;;;;5096104;28;20207;-77
2022/12/26 00:55:54;;;;;;;1.60;1.50;;;8.30;99.90;;;;;;5094254;28;20204;-77
2022/12/26 00:58:23;;;;;;;3.27;1.67;;;8.30;99.90;;;;;;5093728;28;20660;-78
2022/12/26 01:00:52;;;;;;;2.33;1.43;;;8.20;99.90;;;;;;5094311;28;20298;-78
2022/12/26 01:03:22;;;;;;;1.60;1.50;;;8.20;99.90;;;;;;5094283;28;20199;-78
2022/12/26 01:05:51;;;;;;;1.73;1.60;;;8.20;99.90;;;;;;5093390;28;20229;-77
2022/12/26 01:08:19;;;;;;;1.67;1.50;;;8.20;99.90;;;;;;5093272;28;20199;-77
2022/12/26 01:10:53;;;;;;;1.90;1.40;;;8.20;99.90;;;;;;5093042;28;20604;-77
2022/12/26 01:13:21;;;;;;;2.20;1.57;;;8.20;99.90;;;;;;5092842;28;20211;-76
2022/12/26 01:15:50;;;;;;;3.20;1.50;;;8.20;99.90;;;;;;5093424;28;20557;-77
2022/12/26 01:18:19;;;;;;;1.50;1.40;;;8.20;99.90;;;;;;5092991;28;20211;-76
2022/12/26 01:20:49;;;;;;;1.60;1.50;;;8.20;99.90;;;;;;5093540;28;20693;-76
2022/12/26 01:23:20;;;;;;;1.70;1.60;;;8.10;99.90;;;;;;5092998;28;20301;-78
2022/12/26 01:25:48;;;;;;;2.90;1.40;;;8.10;99.90;;;;;;5093489;28;20221;-76
2022/12/26 01:28:36;;;;;;;2.77;1.50;;;8.10;99.90;;;;;;5092792;28;20610;-76
2022/12/26 01:31:05;;;;;;;2.20;1.30;;;8.10;99.90;;;;;;5101040;28;20202;-76
2022/12/26 01:33:33;;;;;;;2.07;1.30;;;8.10;99.90;;;;;;5112688;28;20237;-76
2022/12/26 01:36:03;;;;;;;1.53;1.40;;;8.10;99.90;;;;;;5107892;28;20226;-78
2022/12/26 01:38:31;;;;;;;1.30;1.20;;;8.00;99.90;;;;;;5093204;28;20296;-76
2022/12/26 01:41:18;;;;;;;1.30;1.20;;;7.90;99.90;;;;;;5092933;28;20246;-76
2022/12/26 01:43:50;;;;;;;1.30;1.20;;;7.90;99.90;;;;;;5092151;28;20298;-78
2022/12/26 01:46:21;;;;;;;1.87;1.50;;;7.80;99.90;;;;;;5093221;28;20256;-77
2022/12/26 01:48:50;;;;;;;1.40;1.30;;;7.70;99.90;;;;;;5099905;28;20205;-78
2022/12/26 01:51:22;;;;;;;1.40;1.30;;;7.60;99.90;;;;;;5096493;28;20241;-77
2022/12/26 01:53:55;;;;;;;2.10;1.40;;;7.50;99.90;;;;;;5094641;28;20242;-79
2022/12/26 01:56:46;;;;;;;2.43;1.37;;;7.40;99.90;;;;;;5097327;28;20207;-78
2022/12/26 01:59:19;;;;;;;1.93;1.40;;;7.40;99.90;;;;;;5097015;28;20191;-78
2022/12/26 02:01:49;;;;;;;1.33;1.23;;;7.20;99.90;;;;;;5096987;28;20206;-77
2022/12/26 02:07:15;;;;;;;1.40;1.30;;;7.10;99.90;;;;;;5127671;28;20245;-79
2022/12/26 02:09:43;;;;;;;1.97;1.50;;;7.00;99.90;;;;;;5117916;28;20212;-77
2022/12/26 02:12:17;;;;;;;1.17;1.10;;;6.80;99.90;;;;;;5116395;28;20305;-77
2022/12/26 02:15:08;;;;;;;1.33;1.20;;;6.80;99.90;;;;;;5096580;28;20191;-77
2022/12/26 02:17:37;;;;;;;2.80;1.30;;;6.80;99.90;;;;;;5096543;28;20237;-79
2022/12/26 02:20:16;;;;;;;2.33;1.30;;;6.70;99.90;;;;;;5096458;28;20289;-76
2022/12/26 02:23:23;;;;;;;1.50;1.40;;;6.70;99.90;;;;;;5095639;28;20238;-77
2022/12/26 02:26:16;;;;;;;1.63;1.30;;;6.60;99.90;;;;;;5088472;28;20703;-77
2022/12/26 02:29:15;;;;;;;2.47;1.40;;;6.50;99.90;;;;;;5096268;28;20214;-78
2022/12/26 02:31:51;;;;;;;1.43;1.30;;;6.60;99.90;;;;;;5096023;28;20589;-77
2022/12/26 02:34:23;;;;;;;1.50;1.40;;;6.40;99.90;;;;;;5096390;28;20274;-77
2022/12/26 02:37:17;;;;;;;1.97;1.43;;;6.40;99.90;;;;;;5095934;28;20199;-77
2022/12/26 02:40:00;;;;;;;1.50;1.23;;;6.30;99.90;;;;;;5095968;28;20294;-76
2022/12/26 02:42:39;;;;;;;3.00;1.60;;;6.20;99.90;;;;;;5095269;28;20632;-77
2022/12/26 02:48:13;;;;;;;1.50;1.40;;;6.20;99.90;;;;;;5095752;28;20215;-76
2022/12/26 03:13:47;;;;;;;1.40;1.30;;;6.50;99.90;;;;;;5095135;28;20229;-77
2022/12/26 03:19:06;;;;;;;2.00;1.40;;;6.50;99.90;;;;;;5095276;28;20199;-76
2022/12/26 03:21:40;;;;;;;1.37;1.27;;;6.50;99.90;;;;;;5095033;28;20211;-76
2022/12/26 03:24:10;;;;;;;1.07;1.07;;;6.50;99.90;;;;;;5095258;28;20237;-76
2022/12/26 03:26:46;;;;;;;1.60;1.30;;;6.50;99.90;;;;;;5094940;28;20738;-76
2022/12/26 03:32:10;;;;;;;1.30;1.20;;;6.50;99.90;;;;;;5075358;28;20233;-77
2022/12/26 03:34:42;;;;;;;1.47;1.30;;;6.50;99.90;;;;;;5114394;28;20256;-76
2022/12/26 03:37:43;;;;;;;1.27;1.17;;;6.50;99.90;;;;;;5114572;28;20214;-75
2022/12/26 04:44:03;;;;;;;1.53;1.23;;;6.80;99.90;;;;;;5092965;28;20293;-77
2022/12/26 04:46:33;;;;;;;1.07;1.07;;;7.00;99.90;;;;;;5110664;28;20220;-77
2022/12/26 04:51:52;;;;;;;1.23;1.13;;;7.10;99.90;;;;;;5094644;28;20575;-80
2022/12/26 04:54:20;;;;;;;1.30;1.17;;;7.20;99.90;;;;;;5093701;28;20199;-79
2022/12/26 04:56:48;;;;;;;1.37;1.20;;;7.20;99.90;;;;;;5095136;28;20214;-79
2022/12/26 04:59:18;;;;;;;1.27;1.17;;;7.30;99.90;;;;;;5096849;28;20210;-78
2022/12/26 05:10:08;;;;;;;1.40;1.30;;;7.30;99.90;;;;;;5092711;28;20207;-76
2022/12/26 05:12:37;;;;;;;1.47;1.27;;;7.20;99.90;;;;;;5093021;28;20229;-76
2022/12/26 05:15:08;;;;;;;2.10;1.47;;;7.20;99.90;;;;;;5093042;28;20211;-77
2022/12/26 05:28:58;;;;;;;1.30;1.17;;;7.30;99.90;;;;;;5092008;28;20294;-77
2022/12/26 05:31:27;;;;;;;1.40;1.27;;;7.20;99.90;;;;;;5092909;28;20211;-77
2022/12/26 05:34:05;;;;;;;2.07;1.20;;;7.40;99.90;;;;;;5092582;28;20230;-76
2022/12/26 05:36:37;;;;;;;1.20;1.03;;;7.20;99.90;;;;;;5092971;28;20257;-75
2022/12/26 05:39:06;;;;;;;1.20;1.10;;;7.30;99.90;;;;;;5092864;28;20217;-76
2022/12/26 05:41:34;;;;;;;2.10;1.47;;;7.30;99.90;;;;;;5092020;28;20246;-76
2022/12/26 05:44:02;;;;;;;2.17;1.20;;;7.40;99.90;;;;;;5092546;28;20207;-76
2022/12/26 05:46:31;;;;;;;1.23;1.13;;;7.50;99.90;;;;;;5096950;28;20317;-75
2022/12/26 05:49:00;;;;;;;1.60;1.30;;;7.40;99.90;;;;;;5093553;28;20203;-77
2022/12/26 05:51:29;;;;;;;2.50;1.17;;;7.60;99.90;;;;;;5094008;28;20241;-76
2022/12/26 05:53:57;;;;;;;2.93;1.30;;;7.60;99.90;;;;;;5093796;28;20210;-76
2022/12/26 05:56:25;;;;;;;1.40;1.30;;;7.60;99.90;;;;;;5094347;28;20209;-78
2022/12/26 05:58:57;;;;;;;1.40;1.30;;;7.80;99.90;;;;;;5095416;28;20654;-77
2022/12/26 06:01:27;;;;;;;1.23;1.13;;;7.80;99.90;;;;;;5093298;28;20210;-77
2022/12/26 06:03:58;;;;;;;3.80;1.30;;;7.80;99.90;;;;;;5093003;28;20548;-77
2022/12/26 06:06:27;;;;;;;2.13;1.10;;;7.80;99.90;;;;;;5093505;28;20234;-76
2022/12/26 06:08:56;;;;;;;1.50;1.20;;;7.80;99.90;;;;;;5093269;28;20202;-78
2022/12/26 06:11:25;;;;;;;1.50;1.40;;;7.80;99.90;;;;;;5093037;28;20590;-76
2022/12/26 06:13:54;;;;;;;1.30;1.20;;;7.70;99.90;;;;;;5096173;28;20203;-77
2022/12/26 06:16:22;;;;;;;1.40;1.30;;;7.70;99.90;;;;;;5093796;28;20199;-76
2022/12/26 06:18:50;;;;;;;1.87;1.27;;;7.80;99.90;;;;;;5094429;28;20244;-76
2022/12/26 06:21:21;;;;;;;1.50;1.40;;;7.80;99.90;;;;;;5111651;28;20232;-77
2022/12/26 06:23:49;;;;;;;1.40;1.30;;;7.80;99.90;;;;;;5115906;28;20202;-77
2022/12/26 06:26:18;;;;;;;3.10;1.70;;;7.90;99.90;;;;;;5114024;28;20226;-77
2022/12/26 06:28:46;;;;;;;2.90;1.37;;;7.80;99.90;;;;;;5114110;28;20217;-78
2022/12/26 06:31:19;;;;;;;1.57;1.20;;;7.80;99.90;;;;;;5096974;28;20289;-77
2022/12/26 06:33:47;;;;;;;2.97;2.00;;;7.80;99.90;;;;;;5092792;28;20241;-79
2022/12/26 06:36:18;;;;;;;1.67;1.40;;;7.80;99.90;;;;;;5092775;28;20217;-78
2022/12/26 06:38:48;;;;;;;1.40;1.30;;;7.90;99.90;;;;;;5105086;28;20274;-75
2022/12/26 06:41:22;;;;;;;1.83;1.50;;;7.90;99.90;;;;;;5120279;28;20632;-77
2022/12/26 06:43:50;;;;;;;1.43;1.20;;;7.90;99.90;;;;;;5096998;28;20207;-76
2022/12/26 06:46:21;;;;;;;1.53;1.30;;;7.90;99.90;;;;;;5107412;28;20644;-75
2022/12/26 06:48:50;;;;;;;1.53;1.30;;;8.00;99.90;;;;;;5118027;28;20713;-77
2022/12/26 06:51:21;;;;;;;2.30;1.50;;;8.00;99.90;;;;;;5117959;28;20220;-76
2022/12/26 06:53:51;;;;;;;1.47;1.37;;;8.10;99.90;;;;;;5115610;28;20255;-77
2022/12/26 06:56:21;;;;;;;2.90;1.77;;;8.10;99.90;;;;;;5100033;28;20206;-76
2022/12/26 06:58:54;;;;;;;2.07;1.80;;;8.20;99.90;;;;;;5098572;28;20222;-76
2022/12/26 07:01:22;;;;;;;2.27;1.73;;;8.30;99.90;;;;;;5099474;28;20275;-75
2022/12/26 07:03:52;;;;;;;2.03;1.47;;;8.40;99.90;;;;;;5103280;28;20213;-75
2022/12/26 07:06:23;;;;;;;2.37;1.63;;;8.60;99.90;;;;;;5112371;28;20279;-78
2022/12/26 07:08:54;;;;;;;1.60;1.50;;;8.60;99.90;;;;;;5108899;28;20199;-76
2022/12/26 07:11:25;;;;;;;3.17;1.53;;;8.70;99.90;;;;;;5106722;28;20217;-76
2022/12/26 07:13:54;;;;;;;2.20;1.50;;;8.80;99.90;;;;;;5115392;28;20206;-76
2022/12/26 07:16:23;;;;;;;2.50;1.70;;;8.90;99.90;;;;;;5100549;28;20211;-76
2022/12/26 07:18:53;;;;;;;2.37;1.40;;;9.00;99.90;;;;;;5100326;28;20270;-76
2022/12/26 07:21:22;;;;;;;3.83;1.70;;;9.00;99.90;;;;;;5101499;28;20203;-77
2022/12/26 07:23:55;;;;;;;3.57;1.70;;;9.10;99.90;;;;;;5115191;28;20206;-78
2022/12/26 07:26:24;;;;;;;4.90;1.80;;;9.20;99.90;;;;;;5118561;28;20186;-76
2022/12/26 07:28:54;;;;;;;2.93;1.70;;;9.20;99.90;;;;;;5117144;28;20229;-75
2022/12/26 07:31:23;;;;;;;2.37;1.70;;;9.30;99.90;;;;;;5101418;28;20225;-77
2022/12/26 07:33:54;;;;;;;2.93;1.70;;;9.30;99.90;;;;;;5096409;28;20234;-75
2022/12/26 07:36:23;;;;;;;1.73;1.60;;;9.40;99.90;;;;;;5095956;28;20546;-77
2022/12/26 07:38:52;;;;;;;2.00;1.70;;;9.50;99.90;;;;;;5095727;28;20257;-77
2022/12/26 07:44:08;;;;;;;2.27;1.73;;;9.70;99.90;;;;;;5097114;28;20295;-78
2022/12/26 07:46:37;;;;;;;2.10;1.77;;;9.80;99.90;;;;;;5095186;28;20211;-75
2022/12/26 07:49:05;;;;;;;2.20;1.90;;;9.90;99.90;;;;;;5095336;28;20568;-75
2022/12/26 07:51:33;;;;;;;2.23;1.70;;;9.90;99.90;;;;;;5097544;28;20298;-77
2022/12/26 07:54:01;;;;;;;3.20;1.50;;;10.00;99.90;;;;;;5096330;28;20211;-76
2022/12/26 07:56:39;;;;;;;2.80;1.70;;;10.00;99.90;;;;;;5097364;28;20209;-77
2022/12/26 07:59:08;;;;;;;2.57;1.67;;;10.20;99.90;;;;;;5096557;28;20655;-76
2022/12/26 08:01:36;;;;;;;2.00;1.60;;;10.30;99.90;;;;;;5096853;28;20660;-76
2022/12/26 08:04:04;;;;;;;2.13;1.70;;;10.30;99.90;;;;;;5095475;28;20221;-76
2022/12/26 08:06:32;;;;;;;2.60;1.77;;;10.30;99.90;;;;;;5114265;28;20618;-76
2022/12/26 08:09:00;;;;;;;2.13;1.70;;;10.40;99.90;;;;;;5118332;28;20226;-76
2022/12/26 08:11:35;;;;;;;1.43;1.33;;;10.60;99.90;;;;;;5103944;28;20671;-75
2022/12/26 08:14:04;;;;;;;1.60;1.50;;;10.80;99.90;;;;;;5095653;28;20256;-76
2022/12/26 08:16:32;;;;;;;3.40;1.70;;;11.10;99.90;;;;;;5097624;28;20578;-76
2022/12/26 08:19:02;;;;;;;2.83;1.77;;;11.20;99.90;;;;;;5096787;28;20675;-77
2022/12/26 08:21:31;;;;;;;1.67;1.50;;;11.30;99.90;;;;;;5120038;27;20675;-78
2022/12/26 08:24:02;;;;;;;1.40;1.30;;;11.40;99.90;;;;;;5139844;27;20209;-75
2022/12/26 08:26:30;;;;;;;3.00;1.30;;;11.50;99.90;;;;;;5138409;27;20205;-76
2022/12/26 08:28:58;;;;;;;1.87;1.50;;;11.50;99.90;;;;;;5115332;27;20589;-77
2022/12/26 08:31:27;;;;;;;1.50;1.40;;;11.30;99.90;;;;;;5100162;28;20298;-76
2022/12/26 08:33:56;;;;;;;2.77;1.43;;;11.10;99.90;;;;;;5109204;28;20190;-77
2022/12/26 08:36:25;;;;;;;1.40;1.30;;;11.00;99.90;;;;;;5117110;28;20421;-77
2022/12/26 08:38:54;;;;;;;1.50;1.40;;;11.00;99.90;;;;;;5118626;28;20191;-78
2022/12/26 08:41:23;;;;;;;1.77;1.60;;;11.00;99.90;;;;;;5105258;28;20210;-76
2022/12/26 08:43:53;;;;;;;2.50;1.50;;;11.10;99.90;;;;;;5094048;28;20207;-75
2022/12/26 08:46:42;;;;;;;4.27;1.83;;;11.20;99.90;;;;;;5096652;28;20549;-76
2022/12/26 08:49:17;;;;;;;2.13;1.40;;;11.30;99.90;;;;;;5097262;28;20222;-78
2022/12/26 08:51:45;;;;;;;2.27;1.87;;;11.80;99.90;;;;;;5096322;28;20303;-78
2022/12/26 08:54:13;;;;;;;2.37;1.63;;;12.10;99.90;;;;;;5097823;28;20273;-78
2022/12/26 08:56:41;;;;;;;2.30;1.60;;;12.50;99.90;;;;;;5098138;28;20211;-77
2022/12/26 08:59:09;;;;;;;1.87;1.60;;;12.80;99.90;;;;;;5096748;28;20206;-76
2022/12/26 09:01:38;;;;;;;1.50;1.40;;;12.70;99.90;;;;;;5104174;28;20232;-78
2022/12/26 09:04:07;;;;;;;2.60;1.40;;;12.60;99.90;;;;;;5118821;28;20210;-78
2022/12/26 09:06:38;;;;;;;3.50;1.50;;;12.60;99.90;;;;;;5114903;28;20220;-77
2022/12/26 09:09:07;;;;;;;2.07;1.50;;;12.40;99.90;;;;;;5112610;28;20607;-77
2022/12/26 09:11:36;;;;;;;1.90;1.70;;;12.20;99.90;;;;;;5098590;28;20677;-78
2022/12/26 09:14:07;;;;;;;4.17;1.70;;;11.90;99.90;;;;;;5094499;28;20656;-77
2022/12/26 09:16:41;;;;;;;2.87;1.60;;;11.70;99.90;;;;;;5102619;28;20234;-76
2022/12/26 09:19:20;;;;;;;3.40;1.80;;;11.50;99.90;;;;;;5109869;28;20206;-80
2022/12/26 09:22:49;;;;;;;3.33;1.70;;;11.40;99.90;;;;;;5125232;28;20213;-77
2022/12/26 09:24:39;;;;;;;2.67;1.70;;;11.30;99.90;;;;;;5116211;28;20305;-78
2022/12/26 09:27:08;;;;;;;2.47;1.80;;;11.40;99.90;;;;;;5096111;28;20246;-77
2022/12/26 09:29:37;;;;;;;3.37;1.77;;;11.40;99.90;;;;;;5094363;28;20751;-76
2022/12/26 09:32:06;;;;;;;2.63;1.90;;;11.50;99.90;;;;;;5097944;28;20261;-78
2022/12/26 09:34:35;;;;;;;2.57;1.70;;;11.50;99.90;;;;;;5093310;28;20206;-76
2022/12/26 09:37:06;;;;;;;2.60;2.07;;;11.60;99.90;;;;;;5093593;28;20301;-76
2022/12/26 09:39:37;;;;;;;2.40;2.00;;;11.70;99.90;;;;;;5095071;28;20675;-79
2022/12/26 09:42:17;;;;;;;2.40;2.10;;;11.80;99.90;;;;;;5097889;28;20219;-76
2022/12/26 09:44:56;;;;;;;1.93;1.70;;;11.90;99.90;;;;;;5113681;28;20701;-77
2022/12/26 09:47:32;;;;;;;3.53;2.00;;;11.90;99.90;;;;;;5114613;28;20212;-76
2022/12/26 09:50:08;;;;;;;2.97;1.90;;;11.90;99.90;;;;;;5113248;28;20218;-77
2022/12/26 09:52:43;;;;;;;2.47;1.90;;;11.80;99.90;;;;;;5114389;28;20185;-78
2022/12/26 09:55:27;;;;;;;2.47;2.13;;;11.80;99.90;;;;;;5113118;28;20289;-78
2022/12/26 09:58:02;;;;;;;2.57;2.00;;;11.80;99.90;;;;;;5113634;28;20206;-77
2022/12/26 10:00:36;;;;;;;3.73;1.97;;;11.90;99.90;;;;;;5113900;28;20206;-76
2022/12/26 10:03:06;;;;;;;2.17;1.73;;;12.10;99.90;;;;;;5115836;28;20606;-76
2022/12/26 10:05:40;;;;;;;3.50;2.10;;;12.30;99.90;;;;;;5113280;28;20226;-76
2022/12/26 10:08:25;;;;;;;2.57;1.90;;;12.70;99.90;;;;;;5109968;28;20660;-77
2022/12/26 10:11:00;;;;;;;2.37;1.70;;;12.90;99.90;;;;;;5092855;28;20214;-76
2022/12/26 10:13:34;;;;;;;2.77;1.90;;;13.00;99.90;;;;;;5095788;28;20605;-76
2022/12/26 10:16:11;;;;;;;1.67;1.53;;;13.10;99.90;;;;;;5098747;28;20195;-78
2022/12/26 10:18:59;;;;;;;3.00;1.80;;;13.30;99.90;;;;;;5098060;28;20252;-77
2022/12/26 10:21:40;;;;;;;1.50;1.40;;;13.60;99.90;;;;;;5105162;28;20664;-79
2022/12/26 10:24:14;;;;;;;2.53;1.70;;;14.00;99.90;;;;;;5097533;28;20305;-77
2022/12/26 10:26:49;;;;;;;4.37;2.57;;;14.60;99.90;;;;;;5100803;28;20186;-77
2022/12/26 10:29:21;;;;;;;2.10;1.90;;;15.30;99.90;;;;;;5096759;28;20262;-78
2022/12/26 10:31:54;;;;;;;1.80;1.70;;;15.80;99.90;;;;;;5098060;28;20231;-77
2022/12/26 10:34:26;;;;;;;1.50;1.40;;;16.20;99.90;;;;;;5103065;28;20652;-78
2022/12/26 10:37:00;;;;;;;3.90;1.60;;;16.50;99.90;;;;;;5103331;28;20287;-78
2022/12/26 10:39:33;;;;;;;1.97;1.60;;;17.10;99.90;;;;;;5100517;28;20289;-79
2022/12/26 10:42:10;;;;;;;1.60;1.47;;;17.60;99.90;;;;;;5096514;28;20646;-80
2022/12/26 10:44:39;;;;;;;1.57;1.27;;;17.80;98.90;;;;;;5114823;28;20284;-79
2022/12/26 10:47:23;;;;;;;1.40;1.30;;;18.70;97.80;;;;;;5104357;28;20203;-80
2022/12/26 10:49:58;;;;;;;2.40;1.30;;;19.00;96.60;;;;;;5120584;28;20222;-79
2022/12/26 10:52:33;;;;;;;1.60;1.50;;;19.20;95.30;;;;;;5104597;28;20234;-80
2022/12/26 10:55:01;;;;;;;3.27;1.60;;;18.50;95.70;;;;;;5098219;28;20190;-79
2022/12/26 10:57:52;;;;;;;2.33;1.47;;;18.50;95.40;;;;;;5102268;28;20297;-78
2022/12/26 11:00:23;;;;;;;1.87;1.50;;;18.60;95.00;;;;;;5100563;28;20264;-79
2022/12/26 11:03:06;;;;;;;3.13;1.43;;;18.50;96.00;;;;;;5097728;28;20191;-79
2022/12/26 11:05:37;;;;;;;2.00;1.70;;;18.80;95.60;;;;;;5095581;28;20219;-78
2022/12/26 11:08:35;;;;;;;1.50;1.40;;;18.50;95.80;;;;;;5100695;28;20202;-79
2022/12/26 11:11:14;;;;;;;2.07;1.60;;;17.60;97.00;;;;;;5096761;28;20259;-77
2022/12/26 11:13:49;;;;;;;2.50;1.60;;;16.70;98.10;;;;;;5095499;28;20207;-78
2022/12/26 11:16:26;;;;;;;1.63;1.37;;;16.50;99.50;;;;;;5097686;28;20190;-78
2022/12/26 11:18:56;;;;;;;1.77;1.43;;;16.00;99.90;;;;;;5116186;28;20206;-79
2022/12/26 11:21:28;;;;;;;1.50;1.40;;;15.60;99.90;;;;;;5116036;28;20216;-78
2022/12/26 11:24:19;;;;;;;2.53;1.70;;;15.20;99.90;;;;;;5100800;28;20703;-77
2022/12/26 11:26:48;;;;;;;2.00;1.37;;;14.90;99.90;;;;;;5094098;28;20304;-78
2022/12/26 11:29:19;;;;;;;4.13;1.60;;;14.80;99.90;;;;;;5095741;28;20314;-79
2022/12/26 11:31:53;;;;;;;1.67;1.57;;;14.60;99.90;;;;;;5094344;28;20226;-77
2022/12/26 11:34:29;;;;;;;2.10;1.90;;;14.30;99.90;;;;;;5095915;28;20210;-77
2022/12/26 11:36:57;;;;;;;3.57;1.83;;;14.10;99.90;;;;;;5095924;28;20212;-78
2022/12/26 11:39:30;;;;;;;2.80;1.90;;;14.00;99.90;;;;;;5096148;28;20233;-78
2022/12/26 11:42:10;;;;;;;2.20;1.57;;;13.90;99.90;;;;;;5115269;28;20203;-79
2022/12/26 11:44:43;;;;;;;2.07;1.70;;;13.70;99.90;;;;;;5116270;28;20281;-77
2022/12/26 11:47:16;;;;;;;2.33;1.40;;;13.60;99.90;;;;;;5116109;28;20210;-78
2022/12/26 11:49:54;;;;;;;1.80;1.30;;;13.50;99.90;;;;;;5095665;28;20229;-77
2022/12/26 11:52:38;;;;;;;2.53;1.60;;;13.50;99.90;;;;;;5097043;28;20203;-78
2022/12/26 11:55:28;;;;;;;2.43;1.57;;;13.40;99.90;;;;;;5095881;28;20234;-77
2022/12/26 11:57:59;;;;;;;2.23;1.50;;;13.30;99.90;;;;;;5095384;28;20286;-77
2022/12/26 12:00:28;;;;;;;2.27;1.53;;;13.20;99.90;;;;;;5095414;28;20199;-77
2022/12/26 12:02:57;;;;;;;2.97;1.70;;;13.10;99.90;;;;;;5094707;28;20683;-78
2022/12/26 12:05:39;;;;;;;3.63;2.20;;;13.00;99.90;;;;;;5095941;28;20214;-79
2022/12/26 12:08:27;;;;;;;2.53;1.70;;;12.90;99.90;;;;;;5098947;28;20211;-78
2022/12/26 12:11:18;;;;;;;5.40;2.00;;;12.80;99.90;;;;;;5098061;28;20227;-80
2022/12/26 12:13:57;;;;;;;2.83;2.00;;;12.80;99.90;;;;;;5095468;28;20210;-78
2022/12/26 12:16:38;;;;;;;3.03;2.07;;;12.70;99.90;;;;;;5116545;28;20224;-80
2022/12/26 12:19:21;;;;;;;3.17;1.80;;;12.50;99.90;;;;;;5118426;28;20209;-77
2022/12/26 12:22:03;;;;;;;3.60;2.23;;;12.00;99.90;;;;;;5118094;28;20194;-78
2022/12/26 12:24:46;;;;;;;4.23;2.60;;;11.80;99.90;;;;;;5104258;28;20233;-76
2022/12/26 12:27:25;;;;;;;5.43;2.70;;;11.60;99.90;;;;;;5101032;28;20231;-77
2022/12/26 12:30:19;;;;;;;4.50;2.70;;;11.40;99.90;;;;;;5098494;28;20229;-80
2022/12/26 12:33:05;;;;;;;4.40;2.67;;;11.10;99.90;;;;;;5098542;28;20282;-78
2022/12/26 12:35:49;;;;;;;6.40;3.40;;;10.90;99.90;;;;;;5097360;28;20207;-76
2022/12/26 12:38:30;;;;;;;5.43;3.43;;;10.70;99.90;;;;;;5097238;28;20193;-76
2022/12/26 12:41:09;;;;;;;6.07;3.60;;;10.40;99.90;;;;;;5096535;28;20612;-78
2022/12/26 12:43:47;;;;;;;5.07;3.57;;;10.30;99.90;;;;;;5096806;28;20183;-78
2022/12/26 12:46:27;;;;;;;6.80;3.67;;;10.10;99.90;;;;;;5095574;28;20211;-77
2022/12/26 12:49:22;;;;;;;8.73;4.00;;;10.00;99.90;;;;;;5095988;28;20232;-79
2022/12/26 12:51:59;;;;;;;7.70;4.07;;;9.90;99.90;;;;;;5094994;28;20373;-75
2022/12/26 12:55:01;;;;;;;6.53;4.13;;;9.90;99.90;;;;;;5095158;28;20276;-77
2022/12/26 12:57:35;;;;;;;8.40;4.60;;;9.80;99.90;;;;;;5093645;28;20264;-78
2022/12/26 13:00:13;;;;;;;8.27;4.70;;;9.80;99.90;;;;;;5095129;28;20277;-77
2022/12/26 13:02:45;;;;;;;5.20;4.20;;;9.80;99.90;;;;;;5094923;28;20187;-78
2022/12/26 13:05:22;;;;;;;6.83;4.90;;;9.80;99.90;;;;;;5095649;28;20203;-78
2022/12/26 13:07:57;;;;;;;7.63;4.33;;;9.80;99.90;;;;;;5093715;28;20673;-77
2022/12/26 13:10:29;;;;;;;8.17;4.87;;;9.70;99.90;;;;;;5091895;28;20249;-78
2022/12/26 13:13:02;;;;;;;7.10;5.13;;;9.70;99.90;;;;;;5092932;28;20193;-77
2022/12/26 13:15:37;;;;;;;6.77;4.77;;;9.70;99.90;;;;;;5111757;28;20202;-78
2022/12/26 13:18:12;;;;;;;9.20;4.80;;;9.70;99.90;;;;;;5112105;28;20209;-77
2022/12/26 13:20:43;;;;;;;6.17;4.60;;;9.70;99.90;;;;;;5113500;28;20189;-77
2022/12/26 13:26:11;;;;;;;7.10;5.03;;;9.60;99.90;;;;;;5112117;28;20652;-77
2022/12/26 13:28:53;;;;;;;8.63;5.70;;;9.60;99.90;;;;;;5113326;28;20233;-78
2022/12/26 13:31:23;;;;;;;10.47;6.47;;;9.60;99.90;;;;;;5113037;28;20702;-80
2022/12/26 13:33:51;;;;;;;9.27;6.37;;;9.60;99.90;;;;;;5113373;28;20677;-78
2022/12/26 13:36:38;;;;;;;8.13;5.60;;;9.50;99.90;;;;;;5102124;28;20273;-79
2022/12/26 13:39:30;;;;;;;7.30;5.20;;;9.50;99.90;;;;;;5102718;28;20206;-79
2022/12/26 13:44:50;;;;;;;7.73;5.53;;;9.50;99.90;;;;;;5101897;28;20290;-78
2022/12/26 13:47:37;;;;;;;8.80;6.80;;;9.50;99.90;;;;;;5097250;28;20569;-77
2022/12/26 13:50:46;;;;;;;12.67;6.67;;;9.50;99.90;;;;;;5093251;28;20206;-77
2022/12/26 13:53:30;;;;;;;10.93;6.30;;;9.50;99.90;;;;;;5091955;28;20297;-77
2022/12/26 13:56:01;;;;;;;8.93;6.20;;;9.40;99.90;;;;;;5096965;28;20201;-77
2022/12/26 13:58:51;;;;;;;8.77;5.93;;;9.40;99.90;;;;;;5097034;28;20327;-79
2022/12/26 14:01:42;;;;;;;7.37;5.47;;;9.40;99.90;;;;;;5096521;28;20205;-76
2022/12/26 14:04:40;;;;;;;9.10;5.40;;;9.20;99.90;;;;;;5096945;28;20257;-78
2022/12/26 14:07:22;;;;;;;8.60;5.23;;;9.30;99.90;;;;;;5096289;28;20672;-77
2022/12/26 14:10:01;;;;;;;7.37;5.00;;;9.30;99.90;;;;;;5095820;28;20191;-79
2022/12/26 14:12:48;;;;;;;6.63;4.70;;;9.30;99.90;;;;;;5101631;28;20202;-79
2022/12/26 14:15:28;;;;;;;9.03;5.40;;;9.20;99.90;;;;;;5128161;28;20662;-79
2022/12/26 14:18:08;;;;;;;10.57;5.10;;;9.20;99.90;;;;;;5134235;28;20214;-79
2022/12/26 14:20:44;;;;;;;10.27;5.80;;;9.20;99.90;;;;;;5122332;28;20229;-79
2022/12/26 14:23:32;;;;;;;7.50;5.40;;;9.10;99.90;;;;;;5116705;28;20278;-77
2022/12/26 14:26:06;;;;;;;11.00;5.63;;;9.10;99.90;;;;;;5115390;28;20214;-79
2022/12/26 14:28:50;;;;;;;8.07;4.93;;;9.00;99.90;;;;;;5107438;28;20199;-79
2022/12/26 14:31:25;;;;;;;8.93;6.73;;;9.00;99.90;;;;;;5096451;28;20237;-77
2022/12/26 14:34:03;;;;;;;8.13;5.40;;;9.00;99.90;;;;;;5098473;28;20237;-78
2022/12/26 14:36:44;;;;;;;9.50;6.57;;;9.00;99.90;;;;;;5096932;28;20564;-79
2022/12/26 14:39:27;;;;;;;8.30;6.13;;;9.00;99.90;;;;;;5096655;28;20302;-78
2022/12/26 14:45:32;;;;;;;7.90;5.13;;;9.00;99.90;;;;;;5096059;28;20214;-79
2022/12/26 14:48:01;;;;;;;8.80;5.70;;;8.90;99.90;;;;;;5096040;28;20268;-79
2022/12/26 14:50:43;;;;;;;9.23;5.13;;;8.90;99.90;;;;;;5096345;28;20623;-78
2022/12/26 14:53:30;;;;;;;7.63;5.43;;;8.90;99.90;;;;;;5095443;28;20195;-77
2022/12/26 14:56:23;;;;;;;8.17;5.53;;;8.90;99.90;;;;;;5096210;28;20280;-76
2022/12/26 14:58:52;;;;;;;10.77;6.67;;;8.90;99.90;;;;;;5095613;28;20639;-77
2022/12/26 15:01:48;;;;;;;11.03;6.40;;;8.80;99.90;;;;;;5095833;28;20286;-76
2022/12/26 15:04:53;;;;;;;7.70;5.97;;;8.80;99.90;;;;;;5096461;28;20264;-80
2022/12/26 15:08:08;;;;;;;9.70;5.87;;;8.80;99.90;;;;;;5115879;28;20312;-78
2022/12/26 15:11:10;;;;;;;8.10;5.43;;;8.80;99.90;;;;;;5116378;28;20564;-78
2022/12/26 15:14:04;;;;;;;6.90;5.10;;;8.80;99.90;;;;;;5117321;28;20205;-77
2022/12/26 15:17:00;;;;;;;8.20;4.50;;;8.70;99.90;;;;;;5115199;28;20204;-79
2022/12/26 15:20:12;;;;;;;6.63;4.13;;;8.70;99.90;;;;;;5110633;28;20578;-74
2022/12/26 15:23:07;;;;;;;4.57;3.60;;;8.70;99.90;;;;;;5078392;28;20300;-78
2022/12/26 15:26:15;;;;;;;5.93;4.10;;;8.60;99.90;;;;;;5095919;28;20217;-78
2022/12/26 15:29:03;;;;;;;6.10;3.80;;;8.60;99.90;;;;;;5093586;28;20211;-77
2022/12/26 15:31:48;;;;;;;4.83;3.83;;;8.60;99.90;;;;;;5095923;28;20314;-79
2022/12/26 15:34:41;;;;;;;5.13;3.40;;;8.60;99.90;;;;;;5097993;28;20268;-79
2022/12/26 15:37:21;;;;;;;3.30;2.63;;;8.60;99.90;;;;;;5096253;28;20323;-76
2022/12/26 15:39:55;;;;;;;4.53;2.30;;;8.60;99.90;;;;;;5095664;28;20225;-76
2022/12/26 15:42:39;;;;;;;4.67;2.47;;;8.50;99.90;;;;;;5110845;28;20556;-75
2022/12/26 15:45:34;;;;;;;3.43;2.43;;;8.50;99.90;;;;;;5115880;28;20197;-76
2022/12/26 15:48:10;;;;;;;2.40;2.10;;;8.50;99.90;;;;;;5097809;28;20298;-75